Terminal Aerodrome Forecast
Issued by NWS

Home | Current Version | Previous Version | Text Only | Print | Product List | Glossary On
Versions: 1 2 3 4 5 6 7 8 9 10 11 12 13 14 15 16 17 18 19
000
FTUS41 KBTV 251923 AAA
TAFMSS
TAF AMD
KMSS 251923Z 2519/2618 24010G17KT P6SM VCSH SCT050 BKN080
      TEMPO 2520/2521 4SM TSRA SCT035 BKN050CB
     FM252200 24008KT P6SM VCSH SCT060 BKN090
     FM260400 24004KT P6SM SCT045 BKN080
     FM261100 25005KT P6SM SCT050=

USA.gov is the U.S. government's official web portal to all federal, state and local government web resources and services.